createdAt,value
2022-10-02T00:02:22.598Z,14.40
2022-10-02T00:05:29.191Z,14.40
2022-10-02T00:08:27.129Z,14.50
2022-10-02T00:11:22.980Z,14.50
2022-10-02T00:14:13.443Z,14.50
2022-10-02T00:17:01.363Z,14.50
2022-10-02T00:19:47.915Z,14.60
2022-10-02T00:22:33.606Z,14.60
2022-10-02T00:25:34.748Z,14.60
2022-10-02T00:28:43.423Z,14.60
2022-10-02T00:31:44.854Z,14.60
2022-10-02T00:34:54.449Z,14.70
2022-10-02T00:37:57.859Z,14.70
2022-10-02T00:41:24.820Z,14.70
2022-10-02T00:44:20.200Z,14.70
2022-10-02T00:47:27.081Z,14.80
2022-10-02T00:50:18.051Z,14.80
2022-10-02T00:53:08.728Z,14.80
2022-10-02T00:56:05.891Z,14.80
2022-10-02T00:58:58.990Z,14.80
2022-10-02T01:01:57.815Z,14.80
2022-10-02T01:04:43.303Z,14.90
2022-10-02T01:07:29.390Z,14.90
2022-10-02T01:10:15.314Z,14.90
2022-10-02T01:13:01.195Z,14.80
2022-10-02T01:15:57.091Z,14.80
2022-10-02T01:18:45.803Z,14.80
2022-10-02T01:21:49.229Z,14.80
2022-10-02T01:24:43.377Z,14.80
2022-10-02T01:27:29.014Z,14.80
2022-10-02T01:30:19.420Z,14.90
2022-10-02T01:33:06.175Z,14.90
2022-10-02T01:35:52.429Z,14.90
2022-10-02T01:38:41.789Z,14.90
2022-10-02T01:41:27.403Z,14.90
2022-10-02T01:44:13.817Z,14.90
2022-10-02T01:47:08.269Z,14.90
2022-10-02T01:50:02.763Z,14.90
2022-10-02T01:53:19.625Z,14.90
2022-10-02T01:56:47.013Z,15.00
2022-10-02T01:59:56.483Z,14.90
2022-10-02T02:02:57.412Z,14.90
2022-10-02T02:05:43.459Z,14.90
2022-10-02T02:08:33.929Z,14.90
2022-10-02T02:11:21.561Z,14.90
2022-10-02T02:14:17.438Z,14.90
2022-10-02T02:17:13.996Z,14.90
2022-10-02T02:20:06.256Z,14.90
2022-10-02T02:22:56.462Z,14.90
2022-10-02T02:25:45.776Z,14.90
2022-10-02T02:28:34.776Z,14.90
2022-10-02T02:31:25.240Z,14.90
2022-10-02T02:34:16.733Z,14.90
2022-10-02T02:37:08.640Z,14.90
2022-10-02T02:39:59.289Z,14.80
2022-10-02T02:43:01.914Z,14.80
2022-10-02T02:45:58.709Z,14.80
2022-10-02T02:48:48.780Z,14.80
2022-10-02T03:01:33.855Z,14.80
2022-10-02T03:04:19.550Z,14.70
2022-10-02T03:07:06.337Z,14.70
2022-10-02T03:10:11.064Z,14.70
2022-10-02T03:12:59.344Z,14.80
2022-10-02T03:16:17.834Z,14.80
2022-10-02T03:19:43.896Z,14.80
2022-10-02T03:22:44.352Z,14.80
2022-10-02T03:25:36.059Z,14.80
2022-10-02T03:28:54.498Z,14.90
2022-10-02T03:31:40.147Z,14.90
2022-10-02T03:34:28.251Z,15.00
2022-10-02T03:37:14.430Z,15.00
2022-10-02T03:40:05.759Z,15.00
2022-10-02T03:42:52.311Z,15.00
2022-10-02T03:45:51.094Z,15.10
2022-10-02T03:48:37.185Z,15.10
2022-10-02T03:51:24.366Z,15.10
2022-10-02T03:54:19.722Z,15.10
2022-10-02T03:57:11.609Z,15.10
2022-10-02T04:00:09.376Z,15.00
2022-10-02T04:03:08.719Z,15.10
2022-10-02T04:06:15.516Z,15.10
2022-10-02T04:09:15.061Z,15.10
2022-10-02T04:12:17.338Z,15.10
2022-10-02T04:15:21.218Z,15.10
2022-10-02T04:18:17.427Z,15.20
2022-10-02T04:21:20.559Z,15.20
2022-10-02T04:24:12.044Z,15.20
2022-10-02T04:27:08.126Z,15.20
2022-10-02T04:30:03.793Z,15.30
2022-10-02T04:32:49.375Z,15.40
2022-10-02T04:35:45.120Z,15.40
2022-10-02T04:38:55.623Z,15.50
2022-10-02T04:42:07.094Z,15.50
2022-10-02T04:45:20.392Z,15.60
2022-10-02T04:48:33.562Z,15.50
2022-10-02T04:51:38.802Z,15.60
2022-10-02T04:54:24.692Z,15.70
2022-10-02T04:57:26.700Z,15.70
2022-10-02T05:00:15.799Z,15.70
2022-10-02T05:03:15.465Z,15.70
2022-10-02T05:06:38.285Z,15.70
2022-10-02T05:09:56.733Z,15.70
2022-10-02T05:12:55.410Z,15.80
2022-10-02T05:16:05.897Z,15.80
2022-10-02T05:19:10.652Z,15.80
2022-10-02T05:22:07.551Z,15.90
2022-10-02T05:25:17.990Z,15.90
2022-10-02T05:28:24.357Z,15.90
2022-10-02T05:31:16.344Z,16.00
2022-10-02T05:34:26.467Z,16.00
2022-10-02T05:37:12.141Z,16.10
2022-10-02T05:40:03.451Z,16.10
2022-10-02T05:43:21.314Z,16.10
2022-10-02T05:46:26.557Z,16.20
2022-10-02T05:49:18.673Z,16.20
2022-10-02T05:52:29.548Z,16.20
2022-10-02T05:55:33.638Z,16.30
2022-10-02T05:58:35.236Z,16.30
2022-10-02T06:01:37.120Z,16.40
2022-10-02T06:04:37.442Z,16.40
2022-10-02T06:07:25.655Z,16.40
2022-10-02T06:10:18.510Z,16.40
2022-10-02T06:13:25.710Z,16.40
2022-10-02T06:16:27.074Z,16.40
2022-10-02T06:19:19.701Z,16.40
2022-10-02T06:22:14.168Z,16.50
2022-10-02T06:25:18.157Z,16.50
2022-10-02T06:28:07.603Z,16.50
2022-10-02T06:31:00.795Z,16.50
2022-10-02T06:33:48.688Z,16.60
2022-10-02T06:37:03.028Z,16.60
2022-10-02T06:40:15.526Z,16.70
2022-10-02T06:43:14.099Z,16.70
2022-10-02T06:46:13.393Z,16.80
2022-10-02T06:49:22.196Z,16.90
2022-10-02T06:52:38.347Z,16.90
2022-10-02T06:56:11.903Z,16.90
2022-10-02T06:59:20.410Z,16.80
2022-10-02T07:02:17.638Z,16.90
2022-10-02T07:05:40.736Z,16.90
2022-10-02T07:09:01.019Z,17.00
2022-10-02T07:11:51.575Z,17.00
2022-10-02T07:15:04.611Z,17.10
2022-10-02T07:18:03.638Z,17.10
2022-10-02T07:21:18.500Z,17.20
2022-10-02T07:24:23.359Z,17.20
2022-10-02T07:27:23.445Z,17.30
2022-10-02T07:30:15.162Z,17.30
2022-10-02T07:33:30.259Z,17.20
2022-10-02T07:36:41.723Z,17.20
2022-10-02T07:39:31.439Z,17.30
2022-10-02T07:42:26.165Z,17.40
2022-10-02T07:45:25.164Z,17.40
2022-10-02T07:48:16.895Z,17.40
2022-10-02T07:51:32.673Z,17.50
2022-10-02T07:54:36.277Z,17.50
2022-10-02T07:57:30.426Z,17.60
2022-10-02T08:00:19.899Z,17.70
2022-10-02T08:03:15.139Z,17.80
2022-10-02T08:06:01.876Z,18.10
2022-10-02T08:08:53.818Z,18.20
2022-10-02T08:11:50.259Z,18.30
2022-10-02T08:14:45.645Z,18.30
2022-10-02T08:17:47.250Z,18.20
2022-10-02T08:20:40.359Z,18.30
2022-10-02T08:23:37.270Z,18.50
2022-10-02T08:26:46.500Z,18.60
2022-10-02T08:29:54.994Z,18.60
2022-10-02T08:32:40.495Z,18.60
2022-10-02T08:35:57.203Z,18.60
2022-10-02T08:39:09.802Z,18.70
2022-10-02T08:42:32.397Z,18.80
2022-10-02T08:45:55.583Z,18.80
2022-10-02T08:49:00.293Z,19.00
2022-10-02T08:52:01.343Z,19.20
2022-10-02T08:55:09.531Z,19.30
2022-10-02T08:58:13.579Z,19.30
2022-10-02T09:01:18.774Z,19.20
2022-10-02T09:04:28.261Z,18.90
2022-10-02T09:07:39.642Z,18.70
2022-10-02T09:10:45.994Z,18.80
2022-10-02T09:13:54.184Z,18.60
2022-10-02T09:16:50.156Z,18.50
2022-10-02T09:19:48.529Z,18.60
2022-10-02T09:22:49.086Z,18.60
2022-10-02T09:26:12.896Z,18.60
2022-10-02T09:29:29.640Z,18.50
2022-10-02T09:32:24.461Z,18.50
2022-10-02T09:35:39.214Z,18.40
2022-10-02T09:38:44.767Z,18.40
2022-10-02T09:41:44.307Z,18.40
2022-10-02T09:44:30.139Z,18.40
2022-10-02T09:47:36.986Z,18.40
2022-10-02T09:50:42.599Z,18.50
2022-10-02T09:53:59.072Z,18.50
2022-10-02T09:57:38.665Z,18.50
2022-10-02T10:01:03.001Z,18.50
2022-10-02T10:04:08.994Z,18.60
2022-10-02T10:07:28.847Z,18.40
2022-10-02T10:10:50.093Z,18.30
2022-10-02T10:13:51.795Z,18.30
2022-10-02T10:17:08.996Z,18.20
2022-10-02T10:20:14.277Z,18.20
2022-10-02T10:23:37.085Z,18.10
2022-10-02T10:26:44.046Z,18.00
2022-10-02T10:30:07.089Z,18.00
2022-10-02T10:33:19.646Z,18.00
2022-10-02T10:36:46.508Z,18.00
2022-10-02T10:40:10.178Z,18.00
2022-10-02T10:43:20.393Z,18.00
2022-10-02T10:46:28.017Z,17.90
2022-10-02T10:49:36.481Z,17.90
2022-10-02T10:52:34.158Z,17.80
2022-10-02T10:55:43.642Z,17.80
2022-10-02T10:59:07.804Z,17.80
2022-10-02T11:02:38.039Z,17.80
2022-10-02T11:06:03.579Z,17.80
2022-10-02T11:09:11.194Z,17.80
2022-10-02T11:12:19.663Z,17.80
2022-10-02T11:15:08.180Z,17.90
2022-10-02T11:18:12.762Z,17.90
2022-10-02T11:21:16.897Z,17.90
2022-10-02T11:24:18.468Z,18.00
2022-10-02T11:27:14.987Z,18.10
2022-10-02T11:30:20.597Z,18.20
2022-10-02T11:33:42.645Z,18.60
2022-10-02T11:36:41.647Z,19.40
2022-10-02T11:39:41.268Z,19.80
2022-10-02T11:42:42.957Z,20.10
2022-10-02T11:45:55.529Z,20.30
2022-10-02T11:48:50.088Z,20.60
2022-10-02T11:51:53.266Z,20.60
2022-10-02T11:55:08.899Z,20.70
2022-10-02T11:58:01.741Z,20.50
2022-10-02T12:01:11.606Z,20.50
2022-10-02T12:04:22.989Z,20.20
2022-10-02T12:07:23.981Z,20.10
2022-10-02T12:10:36.411Z,19.90
2022-10-02T12:13:43.139Z,19.80
2022-10-02T12:16:41.253Z,19.60
2022-10-02T12:20:15.858Z,19.50
2022-10-02T12:23:38.572Z,19.60
2022-10-02T12:26:59.001Z,19.60
2022-10-02T12:30:01.246Z,19.50
2022-10-02T12:32:59.768Z,19.40
2022-10-02T12:35:45.625Z,19.30
2022-10-02T12:39:05.379Z,19.30
2022-10-02T12:41:54.100Z,19.20
2022-10-02T12:45:11.539Z,19.10
2022-10-02T12:48:44.414Z,19.00
2022-10-02T12:51:39.032Z,18.80
2022-10-02T12:55:09.566Z,18.70
2022-10-02T12:58:03.759Z,18.70
2022-10-02T13:01:30.841Z,18.70
2022-10-02T13:04:58.144Z,18.70
2022-10-02T13:07:53.100Z,18.70
2022-10-02T13:10:47.704Z,18.60
2022-10-02T13:14:01.315Z,18.30
2022-10-02T13:16:49.949Z,18.20
2022-10-02T13:19:46.240Z,18.30
2022-10-02T13:22:54.495Z,18.30
2022-10-02T13:26:11.906Z,18.50
2022-10-02T13:29:29.835Z,18.50
2022-10-02T13:32:27.519Z,18.60
2022-10-02T13:35:58.363Z,18.60
2022-10-02T13:39:02.611Z,18.70
2022-10-02T13:42:13.512Z,18.70
2022-10-02T13:45:25.523Z,18.70
2022-10-02T13:48:23.169Z,18.70
2022-10-02T13:51:35.274Z,18.70
2022-10-02T13:54:37.974Z,18.70
2022-10-02T13:57:48.369Z,18.70
2022-10-02T14:00:37.326Z,18.70
2022-10-02T14:04:05.761Z,18.60
2022-10-02T14:07:27.115Z,18.50
2022-10-02T14:10:21.818Z,18.40
2022-10-02T14:13:23.269Z,18.20
2022-10-02T14:16:38.111Z,18.20
2022-10-02T14:19:54.928Z,18.00
2022-10-02T14:22:53.321Z,18.10
2022-10-02T14:25:46.445Z,18.10
2022-10-02T14:28:47.593Z,18.10
2022-10-02T14:31:58.038Z,18.10
2022-10-02T14:35:12.181Z,18.10
2022-10-02T14:38:13.964Z,18.10
2022-10-02T14:41:19.653Z,18.10
2022-10-02T14:44:18.752Z,18.20
2022-10-02T14:47:41.806Z,18.20
2022-10-02T14:51:05.376Z,18.30
2022-10-02T14:54:06.153Z,18.30
2022-10-02T14:57:19.452Z,18.20
2022-10-02T15:00:24.663Z,18.20
2022-10-02T15:03:36.413Z,18.10
2022-10-02T15:06:22.107Z,17.90
2022-10-02T15:09:16.066Z,17.90
2022-10-02T15:12:05.746Z,17.80
2022-10-02T15:14:51.484Z,17.70
2022-10-02T15:18:17.348Z,17.80
2022-10-02T15:21:19.952Z,17.80
2022-10-02T15:24:31.087Z,17.80
2022-10-02T15:27:51.683Z,17.90
2022-10-02T15:30:44.443Z,18.10
2022-10-02T15:33:33.609Z,18.00
2022-10-02T15:37:08.759Z,18.00
2022-10-02T15:40:08.882Z,17.90
2022-10-02T15:43:09.503Z,17.90
2022-10-02T15:45:58.427Z,17.90
2022-10-02T15:49:10.153Z,17.90
2022-10-02T15:52:21.581Z,17.90
2022-10-02T15:55:22.752Z,18.00
2022-10-02T15:58:47.037Z,18.00
2022-10-02T16:01:50.166Z,18.00
2022-10-02T16:04:52.033Z,17.90
2022-10-02T16:08:01.254Z,17.80
2022-10-02T16:11:12.216Z,17.70
2022-10-02T16:14:02.125Z,17.70
2022-10-02T16:17:11.652Z,17.50
2022-10-02T16:20:07.343Z,17.50
2022-10-02T16:23:09.883Z,17.60
2022-10-02T16:26:11.060Z,17.50
2022-10-02T16:29:11.965Z,17.50
2022-10-02T16:32:19.521Z,17.40
2022-10-02T16:35:25.262Z,17.40
2022-10-02T16:38:41.341Z,17.40
2022-10-02T16:41:38.262Z,17.20
2022-10-02T16:44:43.864Z,17.10
2022-10-02T16:47:42.946Z,17.00
2022-10-02T16:50:47.225Z,16.80
2022-10-02T16:53:45.215Z,16.90
2022-10-02T16:56:42.964Z,16.90
2022-10-02T16:59:43.128Z,16.90
2022-10-02T17:02:30.222Z,16.90
2022-10-02T17:05:24.730Z,16.90
2022-10-02T17:08:29.195Z,16.80
2022-10-02T17:11:32.064Z,16.90
2022-10-02T17:14:39.790Z,16.80
2022-10-02T17:18:15.372Z,16.80
2022-10-02T17:21:15.672Z,17.20
2022-10-02T17:24:13.482Z,16.70
2022-10-02T17:27:32.766Z,16.70
2022-10-02T17:30:28.986Z,16.70
2022-10-02T17:33:21.714Z,16.80
2022-10-02T17:36:20.929Z,16.80
2022-10-02T17:39:27.257Z,16.80
2022-10-02T17:42:52.160Z,16.70
2022-10-02T17:45:58.951Z,16.80
2022-10-02T17:49:14.575Z,16.80
2022-10-02T17:52:56.809Z,16.80
2022-10-02T17:56:22.332Z,16.80
2022-10-02T17:59:37.083Z,16.80
2022-10-02T18:02:32.218Z,16.80
2022-10-02T18:05:33.450Z,16.80
2022-10-02T18:08:45.395Z,16.80
2022-10-02T18:11:57.125Z,16.70
2022-10-02T18:15:04.170Z,16.70
2022-10-02T18:18:01.765Z,16.70
2022-10-02T18:21:18.295Z,16.70
2022-10-02T18:24:41.837Z,16.40
2022-10-02T18:27:46.997Z,16.20
2022-10-02T18:30:43.512Z,15.80
2022-10-02T18:33:50.329Z,15.60
2022-10-02T18:36:56.561Z,15.50
2022-10-02T18:40:11.492Z,15.00
2022-10-02T18:43:15.853Z,14.80
2022-10-02T18:46:23.201Z,14.70
2022-10-02T18:49:26.596Z,14.80
2022-10-02T18:52:21.225Z,14.80
2022-10-02T18:55:34.564Z,14.90
2022-10-02T18:58:50.855Z,15.10
2022-10-02T19:01:42.243Z,15.30
2022-10-02T19:04:40.354Z,15.40
2022-10-02T19:07:45.239Z,15.40
2022-10-02T19:10:31.204Z,15.50
2022-10-02T19:13:30.115Z,15.50
2022-10-02T19:16:25.220Z,15.50
2022-10-02T19:19:24.456Z,15.50
2022-10-02T19:22:26.369Z,15.50
2022-10-02T19:25:20.246Z,15.50
2022-10-02T19:28:07.486Z,15.50
2022-10-02T19:31:06.338Z,15.40
2022-10-02T19:33:56.891Z,15.40
2022-10-02T19:36:50.407Z,15.40
2022-10-02T19:39:41.835Z,15.30
2022-10-02T19:42:39.969Z,15.30
2022-10-02T19:45:29.062Z,15.30
2022-10-02T19:48:18.683Z,15.30
2022-10-02T19:51:16.974Z,15.30
2022-10-02T19:54:08.093Z,15.30
2022-10-02T19:56:59.333Z,15.30
2022-10-02T19:59:52.435Z,15.30
2022-10-02T20:02:43.483Z,15.30
2022-10-02T20:05:34.198Z,15.30
2022-10-02T20:08:38.302Z,15.30
2022-10-02T20:11:43.075Z,15.30
2022-10-02T20:14:57.014Z,15.30
2022-10-02T20:17:43.125Z,15.30
2022-10-02T20:20:30.459Z,15.20
2022-10-02T20:23:24.590Z,15.20
2022-10-02T20:26:13.928Z,15.20
2022-10-02T20:29:05.109Z,15.20
2022-10-02T20:32:00.426Z,15.20
2022-10-02T20:34:55.754Z,15.20
2022-10-02T20:37:43.035Z,15.20
2022-10-02T20:40:37.176Z,15.20
2022-10-02T20:43:33.859Z,15.20
2022-10-02T20:46:40.913Z,15.20
2022-10-02T20:49:52.810Z,15.20
2022-10-02T20:53:11.607Z,15.20
2022-10-02T20:56:19.033Z,15.20
2022-10-02T20:59:24.048Z,15.20
2022-10-02T21:02:20.991Z,15.20
2022-10-02T21:05:44.990Z,15.20
2022-10-02T21:09:04.937Z,15.10
2022-10-02T21:12:03.136Z,15.10
2022-10-02T21:15:10.009Z,15.10
2022-10-02T21:18:12.210Z,15.10
2022-10-02T21:21:07.352Z,15.00
2022-10-02T21:24:24.350Z,15.10
2022-10-02T21:27:19.702Z,15.00
2022-10-02T21:30:20.032Z,14.90
2022-10-02T21:33:19.222Z,14.90
2022-10-02T21:36:10.075Z,14.90
2022-10-02T21:39:08.275Z,14.80
2022-10-02T21:42:09.049Z,14.80
2022-10-02T21:45:14.190Z,14.90
2022-10-02T21:48:37.560Z,14.90
2022-10-02T21:51:31.946Z,14.90
2022-10-02T21:54:41.859Z,14.90
2022-10-02T21:58:15.880Z,14.90
2022-10-02T22:01:36.260Z,14.90
2022-10-02T22:04:56.188Z,14.90
2022-10-02T22:07:54.939Z,14.90
2022-10-02T22:10:53.897Z,14.90
2022-10-02T22:13:43.239Z,14.90
2022-10-02T22:16:47.396Z,14.90
2022-10-02T22:19:41.740Z,14.90
2022-10-02T22:22:54.689Z,14.90
2022-10-02T22:25:57.076Z,14.80
2022-10-02T22:29:09.673Z,14.80
2022-10-02T22:32:51.636Z,14.80
2022-10-02T22:36:01.673Z,14.80
2022-10-02T22:39:14.247Z,14.80
2022-10-02T22:42:25.575Z,14.80
2022-10-02T22:45:32.614Z,14.80
2022-10-02T22:48:25.683Z,14.80
2022-10-02T22:51:43.224Z,14.80
2022-10-02T22:54:46.668Z,14.70
2022-10-02T22:57:38.390Z,14.70
2022-10-02T23:00:27.674Z,14.70
2022-10-02T23:03:33.166Z,14.60
2022-10-02T23:06:30.574Z,14.60
2022-10-02T23:09:42.020Z,14.60
2022-10-02T23:12:28.342Z,14.70
2022-10-02T23:15:25.731Z,14.70
2022-10-02T23:18:39.839Z,14.70
2022-10-02T23:21:47.287Z,14.70
2022-10-02T23:24:45.035Z,14.70
2022-10-02T23:27:52.632Z,14.70
2022-10-02T23:30:48.456Z,14.70
2022-10-02T23:34:04.561Z,14.70
2022-10-02T23:37:15.881Z,14.70
2022-10-02T23:40:47.721Z,14.70
2022-10-02T23:43:38.411Z,14.70
2022-10-02T23:46:30.320Z,14.70
2022-10-02T23:49:25.737Z,14.70
2022-10-02T23:52:28.135Z,14.70
2022-10-02T23:55:26.661Z,14.60
2022-10-02T23:58:27.141Z,14.50
